createdAt,value
2018-12-09T00:00:22.688Z,149.13
2018-12-09T00:02:51.759Z,151.50
2018-12-09T00:05:20.603Z,148.27
2018-12-09T00:07:49.573Z,152.60
2018-12-09T00:10:18.413Z,155.77
2018-12-09T00:12:47.435Z,143.73
2018-12-09T00:15:16.515Z,153.03
2018-12-09T00:17:45.482Z,157.20
2018-12-09T00:20:14.727Z,148.43
2018-12-09T00:22:43.548Z,157.80
2018-12-09T00:25:12.777Z,159.97
2018-12-09T00:27:41.878Z,155.10
2018-12-09T00:30:11.186Z,149.23
2018-12-09T00:32:40.115Z,140.53
2018-12-09T00:35:09.269Z,141.30
2018-12-09T00:37:38.467Z,149.20
2018-12-09T00:40:07.653Z,145.67
2018-12-09T00:42:43.445Z,140.47
2018-12-09T00:45:08.306Z,140.60
2018-12-09T00:47:38.234Z,149.43
2018-12-09T00:50:07.704Z,144.07
2018-12-09T00:52:37.647Z,129.57
2018-12-09T00:55:07.048Z,124.77
2018-12-09T00:57:36.151Z,132.73
2018-12-09T01:00:05.972Z,135.67
2018-12-09T01:02:35.687Z,134.13
2018-12-09T01:05:05.250Z,138.50
2018-12-09T01:07:34.382Z,129.47
2018-12-09T01:10:03.654Z,140.00
2018-12-09T01:12:32.470Z,128.40
2018-12-09T01:15:01.567Z,131.97
2018-12-09T01:17:30.500Z,127.60
2018-12-09T01:19:59.659Z,124.83
2018-12-09T01:22:28.865Z,137.27
2018-12-09T01:24:57.944Z,143.60
2018-12-09T01:27:26.988Z,131.63
2018-12-09T01:29:55.827Z,141.63
2018-12-09T01:32:24.879Z,147.03
2018-12-09T01:34:53.638Z,133.97
2018-12-09T01:37:23.114Z,134.73
2018-12-09T01:39:52.743Z,141.37
2018-12-09T01:42:22.023Z,147.87
2018-12-09T01:44:51.713Z,138.63
2018-12-09T01:47:20.679Z,138.57
2018-12-09T01:49:50.104Z,142.10
2018-12-09T01:52:19.327Z,134.00
2018-12-09T01:54:48.311Z,153.17
2018-12-09T01:57:17.832Z,172.27
2018-12-09T01:59:47.018Z,136.93
2018-12-09T02:02:16.159Z,129.47
2018-12-09T02:04:45.023Z,145.73
2018-12-09T02:07:14.252Z,142.43
2018-12-09T02:09:43.614Z,148.60
2018-12-09T02:12:12.844Z,141.67
2018-12-09T02:14:42.014Z,143.97
2018-12-09T02:17:11.202Z,131.53
2018-12-09T02:19:40.403Z,139.20
2018-12-09T02:22:10.029Z,145.63
2018-12-09T02:24:38.919Z,126.30
2018-12-09T02:27:07.722Z,134.67
2018-12-09T02:29:37.811Z,138.83
2018-12-09T02:32:07.079Z,133.50
2018-12-09T02:34:36.059Z,133.80
2018-12-09T02:37:05.107Z,134.27
2018-12-09T02:39:34.036Z,122.73
2018-12-09T02:42:03.304Z,123.43
2018-12-09T02:44:32.397Z,134.13
2018-12-09T02:47:01.260Z,123.47
2018-12-09T02:49:30.374Z,134.50
2018-12-09T02:51:59.665Z,127.37
2018-12-09T02:54:28.669Z,110.70
2018-12-09T02:56:57.870Z,131.17
2018-12-09T02:59:26.763Z,135.20
2018-12-09T03:01:55.877Z,133.20
2018-12-09T03:04:25.359Z,132.13
2018-12-09T03:06:54.464Z,129.67
2018-12-09T03:09:23.754Z,132.30
2018-12-09T03:11:52.594Z,125.60
2018-12-09T03:14:21.688Z,137.53
2018-12-09T03:16:50.568Z,121.70
2018-12-09T03:19:20.552Z,141.70
2018-12-09T03:21:49.755Z,126.63
2018-12-09T03:24:19.164Z,129.83
2018-12-09T03:26:48.039Z,130.37
2018-12-09T03:29:16.958Z,126.70
2018-12-09T03:31:46.259Z,138.90
2018-12-09T03:34:15.436Z,128.33
2018-12-09T03:36:44.391Z,134.63
2018-12-09T03:39:13.627Z,140.93
2018-12-09T03:41:42.552Z,143.13
2018-12-09T03:44:11.823Z,133.53
2018-12-09T03:46:41.101Z,130.50
2018-12-09T03:49:10.241Z,129.20
2018-12-09T03:51:39.424Z,130.07
2018-12-09T03:54:08.395Z,131.80
2018-12-09T03:56:37.204Z,134.73
2018-12-09T03:59:06.396Z,142.20
2018-12-09T04:01:35.418Z,132.20
2018-12-09T04:04:04.676Z,133.13
2018-12-09T04:06:33.548Z,144.87
2018-12-09T04:09:02.822Z,131.60
2018-12-09T04:11:31.808Z,121.73
2018-12-09T04:14:00.593Z,118.03
2018-12-09T04:16:29.663Z,122.60
2018-12-09T04:18:58.865Z,129.67
2018-12-09T04:21:28.064Z,139.10
2018-12-09T04:23:57.251Z,132.53
2018-12-09T04:26:26.465Z,125.07
2018-12-09T04:28:55.365Z,144.27
2018-12-09T04:31:24.198Z,125.70
2018-12-09T04:33:53.066Z,129.37
2018-12-09T04:36:22.527Z,126.40
2018-12-09T04:38:51.309Z,121.07
2018-12-09T04:41:20.224Z,132.43
2018-12-09T04:43:49.442Z,135.40
2018-12-09T04:46:18.497Z,131.23
2018-12-09T04:48:47.307Z,133.60
2018-12-09T04:51:16.151Z,124.40
2018-12-09T04:53:45.248Z,128.60
2018-12-09T04:56:14.277Z,134.70
2018-12-09T04:58:57.412Z,126.33
2018-12-09T05:01:26.223Z,127.83
2018-12-09T05:03:55.040Z,119.67
2018-12-09T05:06:24.278Z,142.33
2018-12-09T05:08:53.204Z,131.70
2018-12-09T05:11:22.336Z,120.40
2018-12-09T05:13:51.581Z,119.30
2018-12-09T05:16:21.075Z,120.97
2018-12-09T05:18:50.274Z,119.23
2018-12-09T05:21:19.105Z,149.77
2018-12-09T05:23:48.756Z,127.73
2018-12-09T05:26:17.595Z,127.30
2018-12-09T05:28:46.400Z,119.37
2018-12-09T05:31:15.276Z,127.63
2018-12-09T05:33:44.188Z,124.57
2018-12-09T05:36:13.070Z,120.03
2018-12-09T05:38:42.470Z,120.90
2018-12-09T05:41:11.457Z,115.63
2018-12-09T05:43:40.392Z,129.43
2018-12-09T05:46:09.532Z,140.73
2018-12-09T05:48:38.693Z,151.40
2018-12-09T05:51:07.655Z,142.93
2018-12-09T05:53:36.523Z,135.03
2018-12-09T05:56:05.787Z,130.93
2018-12-09T05:58:34.892Z,139.53
2018-12-09T06:01:04.000Z,129.23
2018-12-09T06:03:33.174Z,139.03
2018-12-09T06:06:02.982Z,135.77
2018-12-09T06:08:32.552Z,125.47
2018-12-09T06:11:01.359Z,135.73
2018-12-09T06:13:31.040Z,127.30
2018-12-09T06:16:00.191Z,135.17
2018-12-09T06:18:29.057Z,125.80
2018-12-09T06:20:57.875Z,127.80
2018-12-09T06:23:27.518Z,136.17
2018-12-09T06:25:56.335Z,142.00
2018-12-09T06:28:25.558Z,142.97
2018-12-09T06:30:54.394Z,147.07
2018-12-09T06:33:23.843Z,154.83
2018-12-09T06:36:00.097Z,156.90
2018-12-09T06:38:29.323Z,159.77
2018-12-09T06:40:58.176Z,149.77
2018-12-09T06:43:27.279Z,158.40
2018-12-09T06:45:56.816Z,156.90
2018-12-09T06:48:25.916Z,152.63
2018-12-09T06:50:54.813Z,161.10
2018-12-09T06:53:23.911Z,156.27
2018-12-09T06:55:52.707Z,153.00
2018-12-09T06:58:21.974Z,154.33
2018-12-09T07:00:51.080Z,151.63
2018-12-09T07:03:20.172Z,155.57
2018-12-09T07:05:49.216Z,140.77
2018-12-09T07:08:18.477Z,142.93
2018-12-09T07:10:48.115Z,138.07
2018-12-09T07:13:17.290Z,107.40
2018-12-09T07:15:47.005Z,108.57
2018-12-09T07:18:17.119Z,111.90
2018-12-09T07:20:45.972Z,108.40
2018-12-09T07:23:15.478Z,76.60
2018-12-09T07:25:45.016Z,76.43
2018-12-09T07:28:14.304Z,69.17
2018-12-09T07:30:44.644Z,71.00
2018-12-09T07:33:13.813Z,56.20
2018-12-09T07:35:43.128Z,61.63
2018-12-09T07:38:12.227Z,61.17
2018-12-09T07:40:41.115Z,52.20
2018-12-09T07:43:10.005Z,52.27
2018-12-09T07:45:39.206Z,36.00
2018-12-09T07:48:08.108Z,45.00
2018-12-09T07:50:37.304Z,48.00
2018-12-09T07:53:06.714Z,46.40
2018-12-09T07:55:35.575Z,43.13
2018-12-09T07:58:05.110Z,50.97
2018-12-09T08:00:34.299Z,78.00
2018-12-09T08:03:03.122Z,36.87
2018-12-09T08:05:32.180Z,38.10
2018-12-09T08:08:00.999Z,39.17
2018-12-09T08:10:29.799Z,39.47
2018-12-09T08:12:58.954Z,36.57
2018-12-09T08:15:27.754Z,36.07
2018-12-09T08:17:56.773Z,36.73
2018-12-09T08:20:26.102Z,36.03
2018-12-09T08:22:55.337Z,30.07
2018-12-09T08:25:24.456Z,29.70
2018-12-09T08:27:53.528Z,26.97
2018-12-09T08:30:22.631Z,30.33
2018-12-09T08:32:51.707Z,27.97
2018-12-09T08:35:20.828Z,25.30
2018-12-09T08:37:49.613Z,23.07
2018-12-09T08:40:18.655Z,21.63
2018-12-09T08:42:47.798Z,29.30
2018-12-09T08:45:16.894Z,29.93
2018-12-09T08:47:45.671Z,26.83
2018-12-09T08:50:14.542Z,27.87
2018-12-09T08:52:43.352Z,26.40
2018-12-09T08:55:12.286Z,22.00
2018-12-09T08:57:41.281Z,15.03
2018-12-09T09:00:10.086Z,14.73
2018-12-09T09:02:39.240Z,15.47
2018-12-09T09:05:08.443Z,29.03
2018-12-09T09:07:37.464Z,24.67
2018-12-09T09:10:07.137Z,19.70
2018-12-09T09:12:36.086Z,25.83
2018-12-09T09:15:05.947Z,45.27
2018-12-09T09:17:35.039Z,25.17
2018-12-09T09:20:04.561Z,17.90
2018-12-09T09:22:33.762Z,27.43
2018-12-09T09:25:02.963Z,19.47
2018-12-09T09:27:31.834Z,15.97
2018-12-09T09:30:01.154Z,20.10
2018-12-09T09:32:30.344Z,20.73
2018-12-09T09:34:59.851Z,18.90
2018-12-09T09:37:28.714Z,14.60
2018-12-09T09:39:58.324Z,18.57
2018-12-09T09:42:27.540Z,15.03
2018-12-09T09:44:57.342Z,18.53
2018-12-09T09:47:26.136Z,19.87
2018-12-09T09:50:01.851Z,17.43
2018-12-09T09:52:31.188Z,19.87
2018-12-09T09:55:00.436Z,15.97
2018-12-09T09:57:29.500Z,17.73
2018-12-09T09:59:58.689Z,17.67
2018-12-09T10:02:27.476Z,20.97
2018-12-09T10:04:56.439Z,18.50
2018-12-09T10:07:25.694Z,24.97
2018-12-09T10:09:54.613Z,21.67
2018-12-09T10:12:23.859Z,18.57
2018-12-09T10:14:52.796Z,24.67
2018-12-09T10:17:21.961Z,19.20
2018-12-09T10:19:51.089Z,21.23
2018-12-09T10:22:20.312Z,21.07
2018-12-09T10:24:49.381Z,21.23
2018-12-09T10:27:18.629Z,19.03
2018-12-09T10:29:47.572Z,22.07
2018-12-09T10:32:16.624Z,22.43
2018-12-09T10:34:46.275Z,21.17
2018-12-09T10:37:15.090Z,21.93
2018-12-09T10:39:45.079Z,27.40
2018-12-09T10:42:14.693Z,25.87
2018-12-09T10:44:43.851Z,16.27
2018-12-09T10:47:13.378Z,15.40
2018-12-09T10:49:42.258Z,14.60
2018-12-09T10:52:11.908Z,19.07
2018-12-09T10:54:40.946Z,15.40
2018-12-09T10:57:16.469Z,17.67
2018-12-09T10:59:45.561Z,16.73
2018-12-09T11:02:19.860Z,18.70
2018-12-09T11:04:49.205Z,24.37
2018-12-09T11:07:18.401Z,18.73
2018-12-09T11:09:47.649Z,20.40
2018-12-09T11:12:16.493Z,21.13
2018-12-09T11:14:45.601Z,23.73
2018-12-09T11:17:14.702Z,15.20
2018-12-09T11:19:43.799Z,15.13
2018-12-09T11:22:12.922Z,14.53
2018-12-09T11:24:42.190Z,20.50
2018-12-09T11:27:11.286Z,16.67
2018-12-09T11:29:40.167Z,17.03
2018-12-09T11:32:09.447Z,19.13
2018-12-09T11:34:38.371Z,21.23
2018-12-09T11:37:07.699Z,22.30
2018-12-09T11:39:37.181Z,16.67
2018-12-09T11:42:06.258Z,14.00
2018-12-09T11:44:35.583Z,16.13
2018-12-09T11:47:04.526Z,15.60
2018-12-09T11:49:33.452Z,14.23
2018-12-09T11:52:02.797Z,13.60
2018-12-09T11:54:32.034Z,15.17
2018-12-09T11:57:01.190Z,17.40
2018-12-09T11:59:30.045Z,14.63
2018-12-09T12:01:59.575Z,16.03
2018-12-09T12:04:28.776Z,14.67
2018-12-09T12:06:57.791Z,16.13
2018-12-09T12:09:26.887Z,17.10
2018-12-09T12:11:55.983Z,16.20
2018-12-09T12:14:25.131Z,14.77
2018-12-09T12:16:54.193Z,17.13
2018-12-09T12:19:23.320Z,17.00
2018-12-09T12:21:52.541Z,18.63
2018-12-09T12:24:21.570Z,18.43
2018-12-09T12:26:50.613Z,17.60
2018-12-09T12:29:19.451Z,19.30
2018-12-09T12:31:48.344Z,16.80
2018-12-09T12:34:17.487Z,15.57
2018-12-09T12:36:46.427Z,11.70
2018-12-09T12:39:15.296Z,13.20
2018-12-09T12:41:44.067Z,15.63
2018-12-09T12:44:13.198Z,20.10
2018-12-09T12:46:42.087Z,14.73
2018-12-09T12:49:11.241Z,15.20
2018-12-09T12:51:40.507Z,14.57
2018-12-09T12:54:09.669Z,20.10
2018-12-09T12:56:38.483Z,18.13
2018-12-09T12:59:08.039Z,19.77
2018-12-09T13:01:37.139Z,19.90
2018-12-09T13:04:07.043Z,18.80
2018-12-09T13:06:36.558Z,17.40
2018-12-09T13:09:07.845Z,17.00
2018-12-09T13:11:36.707Z,16.30
2018-12-09T13:14:05.998Z,17.67
2018-12-09T13:16:35.024Z,22.23
2018-12-09T13:19:04.068Z,21.83
2018-12-09T13:21:33.166Z,20.77
2018-12-09T13:24:02.264Z,29.97
2018-12-09T13:26:31.453Z,26.77
2018-12-09T13:29:00.612Z,26.33
2018-12-09T13:31:29.747Z,30.90
2018-12-09T13:33:58.618Z,21.50
2018-12-09T13:36:27.438Z,28.27
2018-12-09T13:38:57.013Z,21.70
2018-12-09T13:41:26.134Z,24.23
2018-12-09T13:43:55.213Z,21.90
2018-12-09T13:46:24.353Z,20.67
2018-12-09T13:48:53.325Z,18.63
2018-12-09T13:51:22.432Z,11.57
2018-12-09T13:53:51.527Z,12.40
2018-12-09T13:56:21.028Z,10.60
2018-12-09T13:58:49.879Z,15.07
2018-12-09T14:01:19.039Z,12.83
2018-12-09T14:03:48.111Z,12.53
2018-12-09T14:06:17.099Z,11.63
2018-12-09T14:08:46.300Z,12.67
2018-12-09T14:11:16.523Z,13.90
2018-12-09T14:13:45.633Z,11.67
2018-12-09T14:16:14.597Z,13.60
2018-12-09T14:18:43.911Z,14.93
2018-12-09T14:21:14.336Z,16.13
2018-12-09T14:23:43.573Z,15.50
2018-12-09T14:26:12.993Z,14.07
2018-12-09T14:28:41.929Z,15.27
2018-12-09T14:31:10.788Z,17.20
2018-12-09T14:33:40.024Z,14.80
2018-12-09T14:36:09.225Z,18.47
2018-12-09T14:38:38.066Z,21.67
2018-12-09T14:41:06.875Z,15.13
2018-12-09T14:43:35.915Z,13.73
2018-12-09T14:46:05.034Z,14.47
2018-12-09T14:48:34.082Z,17.60
2018-12-09T14:51:02.943Z,16.27
2018-12-09T14:53:32.150Z,18.77
2018-12-09T14:56:01.106Z,13.03
2018-12-09T14:58:30.268Z,20.47
2018-12-09T15:00:59.463Z,14.53
2018-12-09T15:03:28.315Z,33.77
2018-12-09T15:05:57.156Z,30.00
2018-12-09T15:08:26.034Z,34.20
2018-12-09T15:10:55.581Z,44.23
2018-12-09T15:13:24.522Z,37.80
2018-12-09T15:15:54.659Z,101.47
2018-12-09T15:18:23.854Z,106.20
2018-12-09T15:20:52.952Z,109.10
2018-12-09T15:23:21.798Z,90.07
2018-12-09T15:25:50.939Z,59.40
2018-12-09T15:28:20.349Z,55.00
2018-12-09T15:30:49.613Z,64.03
2018-12-09T15:33:18.429Z,61.37
2018-12-09T15:35:47.446Z,67.07
2018-12-09T15:38:16.614Z,38.50
2018-12-09T15:40:45.668Z,44.70
2018-12-09T15:43:15.333Z,64.07
2018-12-09T15:45:44.646Z,37.33
2018-12-09T15:48:13.466Z,66.27
2018-12-09T15:50:42.487Z,198.07
2018-12-09T15:53:11.651Z,272.67
2018-12-09T15:55:41.264Z,144.67
2018-12-09T15:58:11.034Z,299.57
2018-12-09T16:00:46.208Z,114.00
2018-12-09T16:03:15.451Z,148.60
2018-12-09T16:05:44.719Z,115.80
2018-12-09T16:08:14.121Z,78.37
2018-12-09T16:10:43.531Z,81.87
2018-12-09T16:13:12.664Z,70.40
2018-12-09T16:15:41.639Z,48.47
2018-12-09T16:18:10.747Z,47.10
2018-12-09T16:20:39.947Z,45.33
2018-12-09T16:23:08.980Z,63.43
2018-12-09T16:25:38.428Z,72.03
2018-12-09T16:28:07.232Z,88.37
2018-12-09T16:30:36.282Z,76.90
2018-12-09T16:33:05.414Z,71.47
2018-12-09T16:35:34.633Z,71.87
2018-12-09T16:38:03.820Z,87.27
2018-12-09T16:40:32.879Z,121.37
2018-12-09T16:43:02.108Z,113.47
2018-12-09T16:45:31.953Z,111.37
2018-12-09T16:48:01.203Z,147.83
2018-12-09T16:50:30.424Z,139.70
2018-12-09T16:52:59.647Z,91.47
2018-12-09T16:55:29.060Z,99.50
2018-12-09T16:57:58.273Z,92.13
2018-12-09T17:00:27.431Z,84.53
2018-12-09T17:02:56.222Z,141.73
2018-12-09T17:05:25.588Z,99.73
2018-12-09T17:07:54.659Z,107.63
2018-12-09T17:10:23.925Z,117.20
2018-12-09T17:12:52.721Z,93.37
2018-12-09T17:15:22.071Z,73.43
2018-12-09T17:17:51.562Z,82.93
2018-12-09T17:20:20.859Z,65.30
2018-12-09T17:22:51.002Z,44.00
2018-12-09T17:28:01.333Z,44.13
2018-12-09T17:30:30.450Z,34.07
2018-12-09T17:33:00.673Z,39.00
2018-12-09T17:35:29.988Z,41.73
2018-12-09T17:37:59.470Z,50.90
2018-12-09T17:40:28.775Z,49.03
2018-12-09T17:42:59.122Z,51.27
2018-12-09T17:45:28.432Z,65.57
2018-12-09T17:47:57.668Z,56.60
2018-12-09T17:50:26.942Z,45.23
2018-12-09T17:52:56.026Z,47.80
2018-12-09T17:55:25.004Z,39.70
2018-12-09T17:57:54.421Z,41.07
2018-12-09T18:00:23.326Z,34.77
2018-12-09T18:02:52.568Z,31.23
2018-12-09T18:05:21.602Z,45.40
2018-12-09T18:07:50.543Z,38.50
2018-12-09T18:10:19.422Z,45.10
2018-12-09T18:12:48.685Z,36.77
2018-12-09T18:15:21.198Z,38.40
2018-12-09T18:17:50.601Z,36.60
2018-12-09T18:20:19.845Z,45.30
2018-12-09T18:22:49.324Z,41.10
2018-12-09T18:25:18.561Z,53.47
2018-12-09T18:27:47.780Z,48.50
2018-12-09T18:30:16.747Z,43.20
2018-12-09T18:32:46.667Z,44.70
2018-12-09T18:35:15.821Z,43.20
2018-12-09T18:37:46.523Z,34.00
2018-12-09T18:40:16.033Z,42.27
2018-12-09T18:42:45.090Z,34.17
2018-12-09T18:45:14.365Z,31.67
2018-12-09T18:47:43.574Z,35.40
2018-12-09T18:50:12.879Z,38.20
2018-12-09T18:52:42.077Z,38.47
2018-12-09T18:55:11.244Z,39.90
2018-12-09T18:57:40.342Z,52.37
2018-12-09T19:00:09.788Z,36.87
2018-12-09T19:02:39.083Z,43.30
2018-12-09T19:05:08.383Z,47.63
2018-12-09T19:07:38.715Z,39.97
2018-12-09T19:10:09.247Z,38.53
2018-12-09T19:12:38.545Z,44.57
2018-12-09T19:15:07.690Z,44.97
2018-12-09T19:17:37.036Z,55.73
2018-12-09T19:20:06.376Z,43.50
2018-12-09T19:22:35.325Z,46.60
2018-12-09T19:25:04.640Z,45.83
2018-12-09T19:27:33.927Z,44.07
2018-12-09T19:30:03.116Z,41.27
2018-12-09T19:32:31.958Z,43.83
2018-12-09T19:35:00.824Z,51.20
2018-12-09T19:37:30.091Z,48.87
2018-12-09T19:39:58.860Z,42.90
2018-12-09T19:42:27.903Z,43.23
2018-12-09T19:44:57.055Z,33.87
2018-12-09T19:47:26.166Z,35.67
2018-12-09T19:49:55.821Z,35.40
2018-12-09T19:52:25.010Z,43.97
2018-12-09T19:54:54.600Z,36.40
2018-12-09T19:57:23.897Z,35.07
2018-12-09T19:59:53.113Z,29.97
2018-12-09T20:02:22.915Z,32.70
2018-12-09T20:04:51.909Z,33.87
2018-12-09T20:07:21.368Z,36.90
2018-12-09T20:09:50.532Z,32.43
2018-12-09T20:12:19.669Z,23.53
2018-12-09T20:14:48.495Z,18.90
2018-12-09T20:17:17.334Z,22.17
2018-12-09T20:19:46.440Z,27.47
2018-12-09T20:22:15.373Z,28.67
2018-12-09T20:24:44.725Z,22.67
2018-12-09T20:27:13.634Z,26.43
2018-12-09T20:29:42.463Z,32.53
2018-12-09T20:32:11.482Z,25.60
2018-12-09T20:34:40.397Z,26.20
2018-12-09T20:37:09.310Z,32.30
2018-12-09T20:39:38.270Z,30.87
2018-12-09T20:42:07.307Z,35.13
2018-12-09T20:44:36.352Z,32.10
2018-12-09T20:47:05.608Z,34.30
2018-12-09T20:49:34.671Z,27.43
2018-12-09T20:52:03.776Z,31.17
2018-12-09T20:54:32.800Z,30.40
2018-12-09T20:57:02.270Z,30.47
2018-12-09T20:59:31.158Z,29.57
2018-12-09T21:02:00.300Z,30.73
2018-12-09T21:04:30.040Z,30.57
2018-12-09T21:06:59.003Z,28.17
2018-12-09T21:09:28.982Z,33.90
2018-12-09T21:11:58.117Z,35.57
2018-12-09T21:14:27.381Z,29.30
2018-12-09T21:16:56.325Z,31.33
2018-12-09T21:19:25.290Z,33.73
2018-12-09T21:21:54.206Z,32.70
2018-12-09T21:24:25.931Z,35.37
2018-12-09T21:26:54.691Z,36.53
2018-12-09T21:29:23.731Z,31.40
2018-12-09T21:31:53.073Z,41.37
2018-12-09T21:34:22.104Z,54.27
2018-12-09T21:36:51.271Z,86.70
2018-12-09T21:39:20.300Z,51.70
2018-12-09T21:41:49.462Z,44.40
2018-12-09T21:44:18.552Z,49.03
2018-12-09T21:46:47.677Z,44.47
2018-12-09T21:49:16.801Z,45.03
2018-12-09T21:51:45.794Z,43.13
2018-12-09T21:54:15.057Z,45.40
2018-12-09T21:56:44.455Z,42.50
2018-12-09T21:59:13.372Z,40.10
2018-12-09T22:01:42.554Z,35.57
2018-12-09T22:04:11.685Z,40.20
2018-12-09T22:06:40.577Z,43.03
2018-12-09T22:09:09.758Z,47.57
2018-12-09T22:11:39.041Z,43.13
2018-12-09T22:14:08.553Z,44.83
2018-12-09T22:16:38.044Z,41.63
2018-12-09T22:19:07.348Z,42.00
2018-12-09T22:21:37.051Z,45.47
2018-12-09T22:24:06.379Z,49.97
2018-12-09T22:26:35.479Z,44.53
2018-12-09T22:29:04.399Z,43.60
2018-12-09T22:31:33.646Z,43.33
2018-12-09T22:34:02.437Z,38.87
2018-12-09T22:36:31.309Z,36.57
2018-12-09T22:39:00.501Z,39.03
2018-12-09T22:41:29.507Z,37.23
2018-12-09T22:43:58.758Z,33.97
2018-12-09T22:46:27.510Z,38.70
2018-12-09T22:48:57.079Z,39.67
2018-12-09T22:51:26.316Z,43.43
2018-12-09T22:53:55.263Z,36.60
2018-12-09T22:56:24.095Z,37.37
2018-12-09T22:58:53.292Z,41.07
2018-12-09T23:01:23.008Z,38.63
2018-12-09T23:03:52.199Z,38.80
2018-12-09T23:06:21.399Z,39.73
2018-12-09T23:08:50.590Z,50.83
2018-12-09T23:11:19.719Z,39.93
2018-12-09T23:13:48.803Z,46.10
2018-12-09T23:16:17.639Z,41.33
2018-12-09T23:18:46.672Z,32.27
2018-12-09T23:21:15.795Z,38.47
2018-12-09T23:23:44.835Z,32.97
2018-12-09T23:26:13.812Z,31.03
2018-12-09T23:28:43.263Z,34.50
2018-12-09T23:31:12.094Z,32.27
2018-12-09T23:33:41.063Z,27.37
2018-12-09T23:36:10.243Z,26.50
2018-12-09T23:38:39.176Z,25.83
2018-12-09T23:41:08.344Z,27.50
2018-12-09T23:43:37.488Z,28.67
2018-12-09T23:46:06.618Z,29.27
2018-12-09T23:48:35.644Z,29.23
2018-12-09T23:51:04.937Z,38.20
2018-12-09T23:53:33.971Z,32.57
2018-12-09T23:56:03.007Z,38.20
2018-12-09T23:58:32.034Z,45.47
